Fountainhead — ZCTU3 — position and weather

sailwx.info

Track history (hours):
 
Tides and Currents Weather Stations Pressure Air Temp Water Temp Dewpoint Dewpoint Depression Visibility Wind Speed Wind Dir Waves Ship Positions

Fountainhead

Last reported at 2018-Apr-07 23:38 UTC. Time now 2018-Apr-23 19:30 UTC.
Position N 27°00' W 079°57'.
Warning: this ship's position is 15 days out of date.

Length 85 m; draft 4.4 m.

Type: Pleasure craft. MMSI: 319028100.

Date/timePositionNaut miles runAvg speedWind from/ knotsBaromVisibWave heightAir tempDewpointWater temp
2018-Apr-07 23:38N 27°00' W 079°57'213.4
2018-Apr-07 23:30N 26°59' W 079°57'2512.1
2018-Apr-07 21:27N 26°34' W 079°58'611.3
2018-Apr-07 20:57N 26°28' W 079°58'511.7
2018-Apr-07 20:29N 26°23' W 079°59'613.1
2018-Apr-07 20:00N 26°16' W 079°59'713.0
2018-Apr-07 19:30N 26°10' W 080°01'612.8
2018-Apr-07 19:00N 26°04' W 080°03'612.6
2018-Apr-07 18:30N 25°57' W 080°03'612.7
2018-Apr-07 18:00N 25°51' W 080°04'4 8.9
2018-Apr-07 17:30N 25°47' W 080°06'0 0.0
2018-Apr-07 17:00N 25°47' W 080°06'1 2.0
2018-Apr-07 16:30N 25°47' W 080°05'713.9
2018-Apr-07 16:00N 25°45' W 079°57'510.2
2018-Apr-07 15:30N 25°42' W 079°53'815.5
2018-Apr-07 15:00N 25°44' W 080°01'611.6
2018-Apr-07 14:30N 25°45' W 080°07'3 6.2
2018-Apr-07 14:00N 25°47' W 080°10'1 1.0
2018-Apr-07 13:29N 25°47' W 080°11'0 0.0
2018-Apr-07 12:58N 25°47' W 080°11'0 0.0
2018-Apr-07 12:28N 25°47' W 080°11'0 0.0
2018-Apr-07 11:58N 25°47' W 080°11'0 0.0
2018-Apr-07 11:28N 25°47' W 080°11'0 0.0
2018-Apr-07 10:58N 25°47' W 080°11'0 0.0
2018-Apr-07 10:28N 25°47' W 080°11'0 0.0
2018-Apr-07 09:58N 25°47' W 080°11'0 0.0
2018-Apr-07 09:19N 25°47' W 080°11'0 0.0
2018-Apr-07 08:58N 25°47' W 080°11'0 0.0
2018-Apr-07 08:25N 25°47' W 080°11'0 0.0
2018-Apr-07 07:58N 25°47' W 080°11'0 0.0
2018-Apr-07 07:28N 25°47' W 080°11'0 0.0
2018-Apr-07 06:55N 25°47' W 080°11'0 0.0
2018-Apr-07 06:25N 25°47' W 080°11'0 0.0
2018-Apr-07 05:55N 25°47' W 080°11'0 0.0
2018-Apr-07 05:25N 25°47' W 080°11'0 0.0
2018-Apr-07 04:55N 25°47' W 080°11'0 0.0
2018-Apr-07 04:28N 25°47' W 080°11'0 0.0
2018-Apr-07 03:55N 25°47' W 080°11'0 0.0
2018-Apr-07 03:28N 25°47' W 080°11'0 0.0
2018-Apr-07 02:58N 25°47' W 080°11'0 0.0
2018-Apr-07 02:25N 25°47' W 080°11'0 0.0
2018-Apr-07 01:58N 25°47' W 080°11'0 0.0
2018-Apr-07 01:25N 25°47' W 080°11'0 0.0
2018-Apr-07 00:55N 25°47' W 080°11'0 0.0
2018-Apr-07 00:25N 25°47' W 080°11'0 0.0
2018-Apr-06 23:58N 25°47' W 080°11'0 0.0
2018-Apr-06 23:28N 25°47' W 080°11'0 0.0
2018-Apr-06 22:58N 25°47' W 080°11'0 0.0
2018-Apr-06 22:28N 25°47' W 080°11'0 0.0
2018-Apr-06 21:58N 25°47' W 080°11'0 0.0
2018-Apr-06 21:28N 25°47' W 080°11'0 0.0
2018-Apr-06 20:58N 25°47' W 080°11'0 0.0
2018-Apr-06 20:28N 25°47' W 080°11'0 0.0
2018-Apr-06 19:58N 25°47' W 080°11'0 0.0
2018-Apr-06 19:25N 25°47' W 080°11'0 0.0
2018-Apr-06 18:58N 25°47' W 080°11'0 0.0
2018-Apr-06 18:28N 25°47' W 080°11'0 0.0
2018-Apr-06 17:58N 25°47' W 080°11'0 0.0
2018-Apr-06 17:28N 25°47' W 080°11'0 0.0
2018-Apr-06 16:58N 25°47' W 080°11'0 0.0
2018-Apr-06 16:28N 25°47' W 080°11'0 0.0
2018-Apr-06 15:55N 25°47' W 080°11'0 0.0
2018-Apr-06 15:28N 25°47' W 080°11'0 0.0
2018-Apr-06 14:52N 25°47' W 080°11'0 0.0
2018-Apr-06 14:25N 25°47' W 080°11'0 0.0
2018-Apr-06 13:58N 25°47' W 080°11'0 0.0
2018-Apr-06 13:25N 25°47' W 080°11'0 0.0
2018-Apr-06 12:58N 25°47' W 080°11'0 0.0
2018-Apr-06 12:28N 25°47' W 080°11'0 0.0
2018-Apr-06 11:58N 25°47' W 080°11'0 0.0
2018-Apr-06 11:28N 25°47' W 080°11'0 0.0
2018-Apr-06 10:58N 25°47' W 080°11'0 0.0
2018-Apr-06 10:28N 25°47' W 080°11'0 0.0
2018-Apr-06 09:58N 25°47' W 080°11'0 0.0
2018-Apr-06 09:28N 25°47' W 080°11'0 0.0
2018-Apr-06 08:55N 25°47' W 080°11'0 0.0
2018-Apr-06 08:28N 25°47' W 080°11'0 0.0
2018-Apr-06 07:58N 25°47' W 080°11'0 0.0
2018-Apr-06 07:28N 25°47' W 080°11'0 0.0
2018-Apr-06 06:58N 25°47' W 080°11'0 0.0
2018-Apr-06 06:28N 25°47' W 080°11'0 0.0
2018-Apr-06 05:58N 25°47' W 080°11'0 0.0
2018-Apr-06 05:28N 25°47' W 080°11'0 0.0
2018-Apr-06 04:58N 25°47' W 080°11'0 0.0
2018-Apr-06 04:28N 25°47' W 080°11'0 0.0
2018-Apr-06 03:58N 25°47' W 080°11'0 0.0
2018-Apr-06 03:28N 25°47' W 080°11'0 0.0
2018-Apr-06 02:58N 25°47' W 080°11'0 0.0
2018-Apr-06 02:28N 25°47' W 080°11'0 0.0
2018-Apr-06 01:55N 25°47' W 080°11'0 0.0
2018-Apr-06 01:28N 25°47' W 080°11'0 0.0
2018-Apr-06 00:55N 25°47' W 080°11'0 0.0
2018-Apr-06 00:25N 25°47' W 080°11'0 0.0
2018-Apr-05 23:58N 25°47' W 080°11'0 0.0
2018-Apr-05 23:25N 25°47' W 080°11'0 0.0
2018-Apr-05 22:58N 25°47' W 080°11'0 0.0
2018-Apr-05 22:25N 25°47' W 080°11'0 0.0
2018-Apr-05 21:58N 25°47' W 080°11'0 0.0
2018-Apr-05 21:28N 25°47' W 080°11'0 0.0
2018-Apr-05 20:55N 25°47' W 080°11'0 0.0
2018-Apr-05 20:28N 25°47' W 080°11'0 0.0
2018-Apr-05 19:58N 25°47' W 080°11'0 0.0
2018-Apr-05 19:28N 25°47' W 080°11'0 0.0
2018-Apr-05 18:58N 25°47' W 080°11'0 0.0
2018-Apr-05 18:28N 25°47' W 080°11'0 0.0
2018-Apr-05 17:58N 25°47' W 080°11'0 0.0
2018-Apr-05 17:28N 25°47' W 080°11'0 0.0
2018-Apr-05 16:58N 25°47' W 080°11'0 0.0
2018-Apr-05 16:28N 25°47' W 080°11'0 0.0
2018-Apr-05 15:58N 25°47' W 080°11'0 0.0
2018-Apr-05 15:28N 25°47' W 080°11'0 0.0
2018-Apr-05 14:58N 25°47' W 080°11'0 0.0
2018-Apr-05 14:28N 25°47' W 080°11'0 0.0
2018-Apr-05 13:55N 25°47' W 080°11'0 0.0
2018-Apr-05 13:28N 25°47' W 080°11'0 0.0
2018-Apr-05 12:58N 25°47' W 080°11'0 0.0
2018-Apr-05 12:28N 25°47' W 080°11'0 0.0
2018-Apr-05 11:58N 25°47' W 080°11'0 0.0
2018-Apr-05 11:28N 25°47' W 080°11'0 0.0
2018-Apr-05 10:46N 25°47' W 080°11'0 0.0
2018-Apr-05 10:28N 25°47' W 080°11'0 0.0
2018-Apr-05 09:52N 25°47' W 080°11'0 0.0
2018-Apr-05 09:28N 25°47' W 080°11'0 0.0
2018-Apr-05 08:58N 25°47' W 080°11'0 0.0
2018-Apr-05 08:28N 25°47' W 080°11'0 0.0
2018-Apr-05 07:55N 25°47' W 080°11'0 0.0
2018-Apr-05 07:25N 25°47' W 080°11'0 0.0
2018-Apr-05 06:58N 25°47' W 080°11'0 0.0
2018-Apr-05 06:25N 25°47' W 080°11'0 0.0
2018-Apr-05 05:58N 25°47' W 080°11'0 0.0
2018-Apr-05 05:28N 25°47' W 080°11'0 0.0
2018-Apr-05 04:58N 25°47' W 080°11'0 0.0
2018-Apr-05 04:28N 25°47' W 080°11'0 0.0
2018-Apr-05 03:58N 25°47' W 080°11'0 0.0
2018-Apr-05 03:28N 25°47' W 080°11'0 0.0
2018-Apr-05 02:58N 25°47' W 080°11'0 0.0
2018-Apr-05 02:25N 25°47' W 080°11'0 0.0
2018-Apr-05 01:58N 25°47' W 080°11'0 0.0
2018-Apr-05 01:28N 25°47' W 080°11'0 0.0
2018-Apr-05 00:58N 25°47' W 080°11'0 0.0
2018-Apr-05 00:28N 25°47' W 080°11'0 0.0
2018-Apr-04 23:58N 25°47' W 080°11'0 0.0
2018-Apr-04 23:28N 25°47' W 080°11'0 0.0
2018-Apr-04 22:58N 25°47' W 080°11'0 0.0
2018-Apr-04 22:28N 25°47' W 080°11'0 0.0
2018-Apr-04 21:58N 25°47' W 080°11'0 0.0
2018-Apr-04 21:28N 25°47' W 080°11'0 0.0
2018-Apr-04 20:58N 25°47' W 080°11'0 0.0
2018-Apr-04 20:25N 25°47' W 080°11'0 0.0
2018-Apr-04 19:58N 25°47' W 080°11'0 0.0
2018-Apr-04 19:28N 25°47' W 080°11'0 0.0
2018-Apr-04 18:55N 25°47' W 080°11'0 0.0
2018-Apr-04 18:28N 25°47' W 080°11'0 0.0
2018-Apr-04 17:52N 25°47' W 080°11'0 0.0
2018-Apr-04 17:22N 25°47' W 080°11'0 0.0
2018-Apr-04 16:55N 25°47' W 080°11'0 0.0
2018-Apr-04 16:28N 25°47' W 080°11'0 0.0
2018-Apr-04 15:58N 25°47' W 080°11'0 0.0
2018-Apr-04 15:28N 25°47' W 080°11'0 0.0
2018-Apr-04 14:55N 25°47' W 080°11'0 0.0
2018-Apr-04 14:28N 25°47' W 080°11'0 0.0
2018-Apr-04 13:58N 25°47' W 080°11'0 0.0
2018-Apr-04 13:25N 25°47' W 080°11'0 0.0
2018-Apr-04 12:58N 25°47' W 080°11'0 0.0
2018-Apr-04 12:28N 25°47' W 080°11'0 0.0
2018-Apr-04 11:58N 25°47' W 080°11'0 0.0
2018-Apr-04 11:28N 25°47' W 080°11'0 0.0
2018-Apr-04 10:58N 25°47' W 080°11'0 0.0
2018-Apr-04 10:28N 25°47' W 080°11'0 0.0
2018-Apr-04 09:58N 25°47' W 080°11'0 0.0
2018-Apr-04 09:28N 25°47' W 080°11'0 0.0
2018-Apr-04 09:01N 25°47' W 080°11'0 0.0
2018-Apr-04 08:28N 25°47' W 080°11'0 0.0
2018-Apr-04 08:01N 25°47' W 080°11'0 0.0
2018-Apr-04 07:28N 25°47' W 080°11'0 0.0
2018-Apr-04 06:58N 25°47' W 080°11'0 0.0
2018-Apr-04 06:28N 25°47' W 080°11'0 0.0
2018-Apr-04 05:58N 25°47' W 080°11'0 0.0
2018-Apr-04 05:25N 25°47' W 080°11'0 0.0
2018-Apr-04 04:58N 25°47' W 080°11'0 0.0
2018-Apr-04 04:28N 25°47' W 080°11'0 0.0
2018-Apr-04 03:55N 25°47' W 080°11'0 0.0
2018-Apr-04 03:28N 25°47' W 080°11'0 0.0
2018-Apr-04 02:58N 25°47' W 080°11'0 0.0
2018-Apr-04 02:19N 25°47' W 080°11'0 0.0
2018-Apr-04 01:58N 25°47' W 080°11'0 0.0
2018-Apr-04 01:22N 25°47' W 080°11'0 0.0
2018-Apr-04 00:57N 25°47' W 080°11'0 0.0
2018-Apr-04 00:28N 25°47' W 080°11'0 0.0
2018-Apr-03 23:58N 25°47' W 080°11'0 0.0
2018-Apr-03 23:25N 25°47' W 080°11'0 0.0
2018-Apr-03 23:00N 25°47' W 080°11'0 0.0
2018-Apr-03 22:28N 25°47' W 080°11'0 0.0
2018-Apr-03 21:58N 25°47' W 080°11'0 0.0
2018-Apr-03 21:28N 25°47' W 080°11'0 0.0
2018-Apr-03 20:54N 25°47' W 080°11'0 0.0
2018-Apr-03 20:28N 25°47' W 080°11'0 0.0
2018-Apr-03 20:00N 25°47' W 080°11'0 0.0
2018-Apr-03 19:31N 25°47' W 080°11'0 0.0
2018-Apr-03 18:57N 25°47' W 080°11'0 0.0
2018-Apr-03 18:30N 25°47' W 080°11'0 0.0
2018-Apr-03 17:58N 25°47' W 080°11'0 0.0
2018-Apr-03 17:27N 25°47' W 080°11'0 0.0
2018-Apr-03 16:58N 25°47' W 080°11'0 0.0
2018-Apr-03 16:31N 25°47' W 080°11'0 0.0
2018-Apr-03 16:01N 25°47' W 080°11'0 0.0
2018-Apr-03 15:31N 25°47' W 080°11'0 0.0
2018-Apr-03 15:01N 25°47' W 080°11'0 0.0
2018-Apr-03 14:30N 25°47' W 080°11'0 0.0
2018-Apr-03 14:00N 25°47' W 080°11'0 0.0
2018-Apr-03 13:30N 25°47' W 080°11'0 0.0
2018-Apr-03 13:00N 25°47' W 080°11'0 0.0
2018-Apr-03 12:30N 25°47' W 080°11'0 0.0
2018-Apr-03 12:00N 25°47' W 080°11'0 0.0
2018-Apr-03 11:30N 25°47' W 080°11'0 0.0
2018-Apr-03 11:01N 25°47' W 080°11'0 0.0
2018-Apr-03 10:28N 25°47' W 080°11'0 0.0
2018-Apr-03 09:54N 25°47' W 080°11'0 0.0
2018-Apr-03 09:30N 25°47' W 080°11'0 0.0
2018-Apr-03 08:55N 25°47' W 080°11'0 0.0
2018-Apr-03 08:30N 25°47' W 080°11'0 0.0
2018-Apr-03 08:00N 25°47' W 080°11'0 0.0
2018-Apr-03 07:31N 25°47' W 080°11'0 0.0
2018-Apr-03 07:00N 25°47' W 080°11'0 0.0
2018-Apr-03 06:27N 25°47' W 080°11'0 0.0
2018-Apr-03 06:00N 25°47' W 080°11'0 0.0
2018-Apr-03 05:30N 25°47' W 080°11'0 0.0
2018-Apr-03 05:01N 25°47' W 080°11'0 0.0
2018-Apr-03 04:30N 25°47' W 080°11'0 0.0
2018-Apr-03 03:57N 25°47' W 080°11'0 0.0
2018-Apr-03 03:25N 25°47' W 080°11'0 0.0
2018-Apr-03 03:00N 25°47' W 080°11'0 0.0
2018-Apr-03 02:30N 25°47' W 080°11'0 0.0
2018-Apr-03 02:00N 25°47' W 080°11'0 0.0
2018-Apr-03 01:30N 25°47' W 080°11'0 0.0
2018-Apr-03 01:01N 25°47' W 080°11'0 0.0
2018-Apr-03 00:27N 25°47' W 080°11'0 0.0
2018-Apr-03 00:00N 25°47' W 080°11'0 0.0
2018-Apr-02 23:31N 25°47' W 080°11'0 0.0
2018-Apr-02 23:00N 25°47' W 080°11'0 0.0
2018-Apr-02 22:30N 25°47' W 080°11'0 0.0
2018-Apr-02 22:00N 25°47' W 080°11'0 0.0
2018-Apr-02 21:27N 25°47' W 080°11'0 0.0
2018-Apr-02 21:00N 25°47' W 080°11'0 0.0
2018-Apr-02 20:30N 25°47' W 080°11'0 0.0
2018-Apr-02 20:00N 25°47' W 080°11'0 0.0
2018-Apr-02 19:30N 25°47' W 080°11'0 0.0
2018-Apr-02 18:57N 25°47' W 080°11'0 0.0
2018-Apr-02 18:30N 25°47' W 080°11'0 0.0
2018-Apr-02 18:00N 25°47' W 080°11'0 0.0
2018-Apr-02 17:30N 25°47' W 080°11'0 0.0
2018-Apr-02 17:00N 25°47' W 080°11'0 0.0
2018-Apr-02 16:30N 25°47' W 080°11'0 0.0
2018-Apr-02 16:00N 25°47' W 080°11'0 0.0
2018-Apr-02 15:24N 25°47' W 080°11'0 0.0
2018-Apr-02 14:57N 25°47' W 080°11'0 0.0
2018-Apr-02 14:30N 25°47' W 080°11'0 0.0
2018-Apr-02 13:57N 25°47' W 080°11'0 0.0
2018-Apr-02 13:30N 25°47' W 080°11'0 0.0
2018-Apr-02 13:00N 25°47' W 080°11'0 0.0
2018-Apr-02 12:30N 25°47' W 080°11'0 0.0
2018-Apr-02 12:00N 25°47' W 080°11'0 0.0
2018-Apr-02 11:30N 25°47' W 080°11'0 0.0
2018-Apr-02 11:00N 25°47' W 080°11'0 0.0
2018-Apr-02 10:30N 25°47' W 080°11'0 0.0
2018-Apr-02 10:00N 25°47' W 080°11'0 0.0
2018-Apr-02 09:30N 25°47' W 080°11'0 0.0
2018-Apr-02 09:00N 25°47' W 080°11'0 0.0
2018-Apr-02 08:30N 25°47' W 080°11'0 0.0
2018-Apr-02 08:00N 25°47' W 080°11'0 0.0
2018-Apr-02 07:30N 25°47' W 080°11'0 0.0
2018-Apr-02 07:00N 25°47' W 080°11'0 0.0
2018-Apr-02 06:30N 25°47' W 080°11'0 0.0
2018-Apr-02 06:00N 25°47' W 080°11'0 0.0
2018-Apr-02 05:30N 25°47' W 080°11'0 0.0
2018-Apr-02 05:00N 25°47' W 080°11'0 0.0
2018-Apr-02 04:24N 25°47' W 080°11'0 0.0
2018-Apr-02 03:54N 25°47' W 080°11'0 0.0
2018-Apr-02 03:24N 25°47' W 080°11'0 0.0
2018-Apr-02 03:00N 25°47' W 080°11'0 0.0
2018-Apr-02 02:30N 25°47' W 080°11'0 0.0
2018-Apr-02 02:00N 25°47' W 080°11'0 0.0
2018-Apr-02 01:30N 25°47' W 080°11'0 0.0
2018-Apr-02 01:00N 25°47' W 080°11'0 0.0
2018-Apr-02 00:30N 25°47' W 080°11'0 0.0
2018-Apr-02 00:00N 25°47' W 080°11'0 0.0
2018-Apr-01 23:30N 25°47' W 080°11'0 0.0
2018-Apr-01 23:00N 25°47' W 080°11'0 0.0
2018-Apr-01 22:30N 25°47' W 080°11'0 0.0
2018-Apr-01 22:00N 25°47' W 080°11'0 0.0
2018-Apr-01 21:30N 25°47' W 080°11'0 0.0
2018-Apr-01 21:00N 25°47' W 080°11'0 0.0
2018-Apr-01 20:30N 25°47' W 080°11'0 0.0
2018-Apr-01 20:00N 25°47' W 080°11'0 0.0
2018-Apr-01 19:30N 25°47' W 080°11'0 0.0
2018-Apr-01 19:00N 25°47' W 080°11'0 0.0
2018-Apr-01 18:30N 25°47' W 080°11'0 0.0
2018-Apr-01 18:00N 25°47' W 080°11'0 0.0
2018-Apr-01 17:30N 25°47' W 080°11'0 0.0
2018-Apr-01 17:00N 25°47' W 080°11'0 0.0
2018-Apr-01 16:30N 25°47' W 080°11'0 0.0
2018-Apr-01 16:00N 25°47' W 080°11'0 0.0
2018-Apr-01 15:30N 25°47' W 080°11'0 0.0
2018-Apr-01 15:00N 25°47' W 080°11'0 0.0
2018-Apr-01 14:30N 25°47' W 080°11'0 0.0
2018-Apr-01 14:00N 25°47' W 080°11'0 0.0
2018-Apr-01 13:27N 25°47' W 080°11'0 0.0
2018-Apr-01 12:57N 25°47' W 080°11'0 0.0
2018-Apr-01 12:30N 25°47' W 080°11'0 0.0
2018-Apr-01 12:00N 25°47' W 080°11'0 0.0
2018-Apr-01 11:27N 25°47' W 080°11'0 0.0
2018-Apr-01 11:00N 25°47' W 080°11'0 0.0
2018-Apr-01 10:30N 25°47' W 080°11'0 0.0
2018-Apr-01 10:00N 25°47' W 080°11'0 0.0
2018-Apr-01 09:30N 25°47' W 080°11'0 0.0
2018-Apr-01 09:00N 25°47' W 080°11'0 0.0
2018-Apr-01 08:30N 25°47' W 080°11'0 0.0
2018-Apr-01 08:00N 25°47' W 080°11'0 0.0
2018-Apr-01 07:30N 25°47' W 080°11'0 0.0
2018-Apr-01 07:00N 25°47' W 080°11'0 0.0
2018-Apr-01 06:30N 25°47' W 080°11'0 0.0
2018-Apr-01 06:00N 25°47' W 080°11'0 0.0
2018-Apr-01 05:30N 25°47' W 080°11'0 0.0
2018-Apr-01 05:00N 25°47' W 080°11'0 0.0
2018-Apr-01 04:30N 25°47' W 080°11'0 0.0
2018-Apr-01 04:00N 25°47' W 080°11'0 0.0
2018-Apr-01 03:27N 25°47' W 080°11'0 0.0
2018-Apr-01 03:00N 25°47' W 080°11'0 0.0
2018-Apr-01 02:30N 25°47' W 080°11'0 0.0
2018-Apr-01 02:00N 25°47' W 080°11'0 0.0
2018-Apr-01 01:30N 25°47' W 080°11'0 0.0
2018-Apr-01 01:00N 25°47' W 080°11'0 0.0
2018-Apr-01 00:30N 25°47' W 080°11'0 0.0
2018-Apr-01 00:00N 25°47' W 080°11'0 0.0
2018-Mar-31 23:24N 25°47' W 080°11'0 0.0
2018-Mar-31 23:00N 25°47' W 080°11'0 0.0
2018-Mar-31 22:30N 25°47' W 080°11'0 0.0
2018-Mar-31 21:54N 25°47' W 080°11'0 0.0
2018-Mar-31 21:30N 25°47' W 080°11'0 0.0
2018-Mar-31 20:57N 25°47' W 080°11'0 0.0
2018-Mar-31 20:30N 25°47' W 080°11'0 0.0
2018-Mar-31 20:00N 25°47' W 080°11'0 0.0
2018-Mar-31 19:30N 25°47' W 080°11'0 0.0
2018-Mar-31 18:57N 25°47' W 080°11'0 0.0
2018-Mar-31 18:27N 25°47' W 080°11'0 0.0
2018-Mar-31 18:00N 25°47' W 080°11'0 0.0
2018-Mar-31 17:30N 25°47' W 080°11'0 0.0
2018-Mar-31 17:00N 25°47' W 080°11'0 0.0
2018-Mar-31 16:30N 25°47' W 080°11'0 0.0
2018-Mar-31 16:00N 25°47' W 080°11'0 0.0
2018-Mar-31 15:30N 25°47' W 080°11'0 0.0
2018-Mar-31 15:00N 25°47' W 080°11'0 0.0
2018-Mar-31 14:30N 25°47' W 080°11'0 0.0
2018-Mar-31 14:00N 25°47' W 080°11'0 0.0
2018-Mar-31 13:30N 25°47' W 080°11'0 0.0
2018-Mar-31 13:00N 25°47' W 080°11'0 0.0
2018-Mar-31 12:30N 25°47' W 080°11'0 0.0
2018-Mar-31 12:00N 25°47' W 080°11'0 0.0
2018-Mar-31 11:30N 25°47' W 080°11'0 0.0
2018-Mar-31 11:00N 25°47' W 080°11'0 0.0
2018-Mar-31 10:30N 25°47' W 080°11'0 0.0
2018-Mar-31 10:00N 25°47' W 080°11'0 0.0
2018-Mar-31 09:30N 25°47' W 080°11'0 0.0
2018-Mar-31 09:00N 25°47' W 080°11'0 0.0
2018-Mar-31 08:30N 25°47' W 080°11'0 0.0
2018-Mar-31 08:00N 25°47' W 080°11'0 0.0
2018-Mar-31 07:27N 25°47' W 080°11'0 0.0
2018-Mar-31 07:00N 25°47' W 080°11'0 0.0
2018-Mar-31 06:24N 25°47' W 080°11'0 0.0
2018-Mar-31 06:00N 25°47' W 080°11'0 0.0
2018-Mar-31 05:30N 25°47' W 080°11'0 0.0
2018-Mar-31 05:00N 25°47' W 080°11'0 0.0
2018-Mar-31 04:30N 25°47' W 080°11'0 0.0
2018-Mar-31 04:00N 25°47' W 080°11'0 0.0
2018-Mar-31 03:30N 25°47' W 080°11'0 0.0
2018-Mar-31 02:57N 25°47' W 080°11'0 0.0
2018-Mar-31 02:30N 25°47' W 080°11'0 0.0
2018-Mar-31 02:00N 25°47' W 080°11'0 0.0
2018-Mar-31 01:30N 25°47' W 080°11'0 0.0
2018-Mar-31 01:00N 25°47' W 080°11'0 0.0
2018-Mar-31 00:30N 25°47' W 080°11'0 0.0
2018-Mar-30 23:57N 25°47' W 080°11'0 0.0
2018-Mar-30 23:30N 25°47' W 080°11'0 0.0
2018-Mar-30 23:00N 25°47' W 080°11'0 0.0
2018-Mar-30 22:30N 25°47' W 080°11'0 0.0
2018-Mar-30 22:00N 25°47' W 080°11'0 0.0
2018-Mar-30 21:30N 25°47' W 080°11'0 0.0
2018-Mar-30 21:00N 25°47' W 080°11'0 0.0
2018-Mar-30 20:30N 25°47' W 080°11'0 0.0
2018-Mar-30 20:00N 25°47' W 080°11'0 0.0
2018-Mar-30 19:27N 25°47' W 080°11'0 0.0
2018-Mar-30 19:00N 25°47' W 080°11'0 0.0
2018-Mar-30 18:30N 25°47' W 080°11'0 0.0
2018-Mar-30 17:57N 25°47' W 080°11'0 0.0
2018-Mar-30 17:30N 25°47' W 080°11'0 0.0
2018-Mar-30 16:51N 25°47' W 080°11'0 0.0
2018-Mar-30 16:27N 25°47' W 080°11'0 0.0
2018-Mar-30 16:00N 25°47' W 080°11'0 0.0
2018-Mar-30 15:30N 25°47' W 080°11'0 0.0
2018-Mar-30 15:00N 25°47' W 080°11'0 0.0
2018-Mar-30 14:30N 25°47' W 080°11'0 0.0
2018-Mar-30 13:54N 25°47' W 080°11'0 0.0
2018-Mar-30 13:27N 25°47' W 080°11'0 0.0
2018-Mar-30 13:00N 25°47' W 080°11'0 0.0
2018-Mar-30 12:27N 25°47' W 080°11'0 0.0
2018-Mar-30 11:57N 25°47' W 080°11'0 0.0
2018-Mar-30 11:30N 25°47' W 080°11'0 0.0
2018-Mar-30 11:00N 25°47' W 080°11'0 0.0
2018-Mar-30 10:30N 25°47' W 080°11'0 0.0
2018-Mar-30 10:00N 25°47' W 080°11'0 0.0
2018-Mar-30 09:30N 25°47' W 080°11'0 0.0
2018-Mar-30 09:00N 25°47' W 080°11'0 0.0
2018-Mar-30 08:30N 25°47' W 080°11'0 0.0
2018-Mar-30 08:00N 25°47' W 080°11'0 0.0
2018-Mar-30 07:30N 25°47' W 080°11'0 0.0
2018-Mar-30 07:00N 25°47' W 080°11'0 0.0
2018-Mar-30 06:30N 25°47' W 080°11'0 0.0
2018-Mar-30 06:00N 25°47' W 080°11'0 0.0
2018-Mar-30 05:30N 25°47' W 080°11'0 0.0
2018-Mar-30 05:00N 25°47' W 080°11'0 0.0
2018-Mar-30 04:30N 25°47' W 080°11'0 0.0
2018-Mar-30 04:00N 25°47' W 080°11'0 0.0
2018-Mar-30 03:30N 25°47' W 080°11'0 0.0
2018-Mar-30 02:57N 25°47' W 080°11'0 0.0
2018-Mar-30 02:30N 25°47' W 080°11'0 0.0
2018-Mar-30 02:00N 25°47' W 080°11'0 0.0
2018-Mar-30 01:24N 25°47' W 080°11'0 0.0
2018-Mar-30 01:00N 25°47' W 080°11'0 0.0
2018-Mar-30 00:30N 25°47' W 080°11'0 0.0
2018-Mar-29 23:57N 25°47' W 080°11'0 0.0
2018-Mar-29 23:30N 25°47' W 080°11'0 0.0
2018-Mar-29 23:00N 25°47' W 080°11'0 0.0
2018-Mar-29 22:30N 25°47' W 080°11'0 0.0
2018-Mar-29 22:00N 25°47' W 080°11'0 0.0
2018-Mar-29 21:30N 25°47' W 080°11'0 0.0
2018-Mar-29 21:00N 25°47' W 080°11'0 0.0
2018-Mar-29 20:27N 25°47' W 080°11'0 0.0
2018-Mar-29 20:00N 25°47' W 080°11'0 0.0
2018-Mar-29 19:30N 25°47' W 080°11'0 0.0
2018-Mar-29 19:00N 25°47' W 080°11'0 0.0
2018-Mar-29 18:30N 25°47' W 080°11'0 0.0
2018-Mar-29 18:00N 25°47' W 080°11'0 0.0
2018-Mar-29 17:30N 25°47' W 080°11'0 0.0
2018-Mar-29 17:00N 25°47' W 080°11'0 0.0
2018-Mar-29 16:30N 25°47' W 080°11'0 0.0
2018-Mar-29 16:00N 25°47' W 080°11'0 0.0
2018-Mar-29 15:30N 25°47' W 080°11'0 0.0
2018-Mar-29 15:00N 25°47' W 080°11'0 0.0
2018-Mar-29 14:30N 25°47' W 080°11'0 0.0
2018-Mar-29 14:00N 25°47' W 080°11'0 0.0
2018-Mar-29 13:30N 25°47' W 080°11'0 0.0
2018-Mar-29 13:00N 25°47' W 080°11'0 0.0
2018-Mar-29 12:30N 25°47' W 080°11'0 0.0
2018-Mar-29 11:54N 25°47' W 080°11'0 0.0
2018-Mar-29 11:30N 25°47' W 080°11'0 0.0
2018-Mar-29 11:00N 25°47' W 080°11'0 0.0
2018-Mar-29 10:30N 25°47' W 080°11'0 0.0
2018-Mar-29 09:57N 25°47' W 080°11'0 0.0
2018-Mar-29 09:30N 25°47' W 080°11'0 0.0
2018-Mar-29 08:54N 25°47' W 080°11'0 0.0
2018-Mar-29 08:30N 25°47' W 080°11'0 0.0
2018-Mar-29 08:00N 25°47' W 080°11'0 0.0
2018-Mar-29 07:30N 25°47' W 080°11'0 0.0
2018-Mar-29 07:00N 25°47' W 080°11'0 0.0
2018-Mar-29 06:30N 25°47' W 080°11'0 0.0
2018-Mar-29 05:57N 25°47' W 080°11'0 0.0
2018-Mar-29 05:30N 25°47' W 080°11'0 0.0
2018-Mar-29 05:00N 25°47' W 080°11'0 0.0
2018-Mar-29 04:30N 25°47' W 080°11'0 0.0
2018-Mar-29 04:00N 25°47' W 080°11'0 0.0
2018-Mar-29 03:30N 25°47' W 080°11'0 0.0
2018-Mar-29 03:00N 25°47' W 080°11'0 0.0
2018-Mar-29 02:30N 25°47' W 080°11'0 0.0
2018-Mar-29 02:00N 25°47' W 080°11'0 0.0
2018-Mar-29 01:30N 25°47' W 080°11'0 0.0
2018-Mar-29 00:51N 25°47' W 080°11'0 0.0
2018-Mar-29 00:30N 25°47' W 080°11'0 0.0
2018-Mar-29 00:00N 25°47' W 080°11'  
Track history (hours):
 
Tides and Currents Weather Stations Pressure Air Temp Water Temp Dewpoint Dewpoint Depression Visibility Wind Speed Wind Dir Waves Ship Positions

Fountainhead

Last reported at 2018-Apr-07 23:38 UTC. Time now 2018-Apr-23 19:30 UTC.
Position N 27°00' W 079°57'.
Warning: this ship's position is 15 days out of date.

Length 85 m; draft 4.4 m.

Type: Pleasure craft. MMSI: 319028100.

Date/timePositionNaut miles runAvg speedWind from/ knotsBaromVisibWave heightAir tempDewpointWater temp
2018-Apr-07 23:38N 27°00' W 079°57'213.4
2018-Apr-07 23:30N 26°59' W 079°57'2512.1
2018-Apr-07 21:27N 26°34' W 079°58'611.3
2018-Apr-07 20:57N 26°28' W 079°58'511.7
2018-Apr-07 20:29N 26°23' W 079°59'613.1
2018-Apr-07 20:00N 26°16' W 079°59'713.0
2018-Apr-07 19:30N 26°10' W 080°01'612.8
2018-Apr-07 19:00N 26°04' W 080°03'612.6
2018-Apr-07 18:30N 25°57' W 080°03'612.7
2018-Apr-07 18:00N 25°51' W 080°04'4 8.9
2018-Apr-07 17:30N 25°47' W 080°06'0 0.0
2018-Apr-07 17:00N 25°47' W 080°06'1 2.0
2018-Apr-07 16:30N 25°47' W 080°05'713.9
2018-Apr-07 16:00N 25°45' W 079°57'510.2
2018-Apr-07 15:30N 25°42' W 079°53'815.5
2018-Apr-07 15:00N 25°44' W 080°01'611.6
2018-Apr-07 14:30N 25°45' W 080°07'3 6.2
2018-Apr-07 14:00N 25°47' W 080°10'1 1.0
2018-Apr-07 13:29N 25°47' W 080°11'0 0.0
2018-Apr-07 12:58N 25°47' W 080°11'0 0.0
2018-Apr-07 12:28N 25°47' W 080°11'0 0.0
2018-Apr-07 11:58N 25°47' W 080°11'0 0.0
2018-Apr-07 11:28N 25°47' W 080°11'0 0.0
2018-Apr-07 10:58N 25°47' W 080°11'0 0.0
2018-Apr-07 10:28N 25°47' W 080°11'0 0.0
2018-Apr-07 09:58N 25°47' W 080°11'0 0.0
2018-Apr-07 09:19N 25°47' W 080°11'0 0.0
2018-Apr-07 08:58N 25°47' W 080°11'0 0.0
2018-Apr-07 08:25N 25°47' W 080°11'0 0.0
2018-Apr-07 07:58N 25°47' W 080°11'0 0.0
2018-Apr-07 07:28N 25°47' W 080°11'0 0.0
2018-Apr-07 06:55N 25°47' W 080°11'0 0.0
2018-Apr-07 06:25N 25°47' W 080°11'0 0.0
2018-Apr-07 05:55N 25°47' W 080°11'0 0.0
2018-Apr-07 05:25N 25°47' W 080°11'0 0.0
2018-Apr-07 04:55N 25°47' W 080°11'0 0.0
2018-Apr-07 04:28N 25°47' W 080°11'0 0.0
2018-Apr-07 03:55N 25°47' W 080°11'0 0.0
2018-Apr-07 03:28N 25°47' W 080°11'0 0.0
2018-Apr-07 02:58N 25°47' W 080°11'0 0.0
2018-Apr-07 02:25N 25°47' W 080°11'0 0.0
2018-Apr-07 01:58N 25°47' W 080°11'0 0.0
2018-Apr-07 01:25N 25°47' W 080°11'0 0.0
2018-Apr-07 00:55N 25°47' W 080°11'0 0.0
2018-Apr-07 00:25N 25°47' W 080°11'0 0.0
2018-Apr-06 23:58N 25°47' W 080°11'0 0.0
2018-Apr-06 23:28N 25°47' W 080°11'0 0.0
2018-Apr-06 22:58N 25°47' W 080°11'0 0.0
2018-Apr-06 22:28N 25°47' W 080°11'0 0.0
2018-Apr-06 21:58N 25°47' W 080°11'0 0.0
2018-Apr-06 21:28N 25°47' W 080°11'0 0.0
2018-Apr-06 20:58N 25°47' W 080°11'0 0.0
2018-Apr-06 20:28N 25°47' W 080°11'0 0.0
2018-Apr-06 19:58N 25°47' W 080°11'0 0.0
2018-Apr-06 19:25N 25°47' W 080°11'0 0.0
2018-Apr-06 18:58N 25°47' W 080°11'0 0.0
2018-Apr-06 18:28N 25°47' W 080°11'0 0.0
2018-Apr-06 17:58N 25°47' W 080°11'0 0.0
2018-Apr-06 17:28N 25°47' W 080°11'0 0.0
2018-Apr-06 16:58N 25°47' W 080°11'0 0.0
2018-Apr-06 16:28N 25°47' W 080°11'0 0.0
2018-Apr-06 15:55N 25°47' W 080°11'0 0.0
2018-Apr-06 15:28N 25°47' W 080°11'0 0.0
2018-Apr-06 14:52N 25°47' W 080°11'0 0.0
2018-Apr-06 14:25N 25°47' W 080°11'0 0.0
2018-Apr-06 13:58N 25°47' W 080°11'0 0.0
2018-Apr-06 13:25N 25°47' W 080°11'0 0.0
2018-Apr-06 12:58N 25°47' W 080°11'0 0.0
2018-Apr-06 12:28N 25°47' W 080°11'0 0.0
2018-Apr-06 11:58N 25°47' W 080°11'0 0.0
2018-Apr-06 11:28N 25°47' W 080°11'0 0.0
2018-Apr-06 10:58N 25°47' W 080°11'0 0.0
2018-Apr-06 10:28N 25°47' W 080°11'0 0.0
2018-Apr-06 09:58N 25°47' W 080°11'0 0.0
2018-Apr-06 09:28N 25°47' W 080°11'0 0.0
2018-Apr-06 08:55N 25°47' W 080°11'0 0.0
2018-Apr-06 08:28N 25°47' W 080°11'0 0.0
2018-Apr-06 07:58N 25°47' W 080°11'0 0.0
2018-Apr-06 07:28N 25°47' W 080°11'0 0.0
2018-Apr-06 06:58N 25°47' W 080°11'0 0.0
2018-Apr-06 06:28N 25°47' W 080°11'0 0.0
2018-Apr-06 05:58N 25°47' W 080°11'0 0.0
2018-Apr-06 05:28N 25°47' W 080°11'0 0.0
2018-Apr-06 04:58N 25°47' W 080°11'0 0.0
2018-Apr-06 04:28N 25°47' W 080°11'0 0.0
2018-Apr-06 03:58N 25°47' W 080°11'0 0.0
2018-Apr-06 03:28N 25°47' W 080°11'0 0.0
2018-Apr-06 02:58N 25°47' W 080°11'0 0.0
2018-Apr-06 02:28N 25°47' W 080°11'0 0.0
2018-Apr-06 01:55N 25°47' W 080°11'0 0.0
2018-Apr-06 01:28N 25°47' W 080°11'0 0.0
2018-Apr-06 00:55N 25°47' W 080°11'0 0.0
2018-Apr-06 00:25N 25°47' W 080°11'0 0.0
2018-Apr-05 23:58N 25°47' W 080°11'0 0.0
2018-Apr-05 23:25N 25°47' W 080°11'0 0.0
2018-Apr-05 22:58N 25°47' W 080°11'0 0.0
2018-Apr-05 22:25N 25°47' W 080°11'0 0.0
2018-Apr-05 21:58N 25°47' W 080°11'0 0.0
2018-Apr-05 21:28N 25°47' W 080°11'0 0.0
2018-Apr-05 20:55N 25°47' W 080°11'0 0.0
2018-Apr-05 20:28N 25°47' W 080°11'0 0.0
2018-Apr-05 19:58N 25°47' W 080°11'0 0.0
2018-Apr-05 19:28N 25°47' W 080°11'0 0.0
2018-Apr-05 18:58N 25°47' W 080°11'0 0.0
2018-Apr-05 18:28N 25°47' W 080°11'0 0.0
2018-Apr-05 17:58N 25°47' W 080°11'0 0.0
2018-Apr-05 17:28N 25°47' W 080°11'0 0.0
2018-Apr-05 16:58N 25°47' W 080°11'0 0.0
2018-Apr-05 16:28N 25°47' W 080°11'0 0.0
2018-Apr-05 15:58N 25°47' W 080°11'0 0.0
2018-Apr-05 15:28N 25°47' W 080°11'0 0.0
2018-Apr-05 14:58N 25°47' W 080°11'0 0.0
2018-Apr-05 14:28N 25°47' W 080°11'0 0.0
2018-Apr-05 13:55N 25°47' W 080°11'0 0.0
2018-Apr-05 13:28N 25°47' W 080°11'0 0.0
2018-Apr-05 12:58N 25°47' W 080°11'0 0.0
2018-Apr-05 12:28N 25°47' W 080°11'0 0.0
2018-Apr-05 11:58N 25°47' W 080°11'0 0.0
2018-Apr-05 11:28N 25°47' W 080°11'0 0.0
2018-Apr-05 10:46N 25°47' W 080°11'0 0.0
2018-Apr-05 10:28N 25°47' W 080°11'0 0.0
2018-Apr-05 09:52N 25°47' W 080°11'0 0.0
2018-Apr-05 09:28N 25°47' W 080°11'0 0.0
2018-Apr-05 08:58N 25°47' W 080°11'0 0.0
2018-Apr-05 08:28N 25°47' W 080°11'0 0.0
2018-Apr-05 07:55N 25°47' W 080°11'0 0.0
2018-Apr-05 07:25N 25°47' W 080°11'0 0.0
2018-Apr-05 06:58N 25°47' W 080°11'0 0.0
2018-Apr-05 06:25N 25°47' W 080°11'0 0.0
2018-Apr-05 05:58N 25°47' W 080°11'0 0.0
2018-Apr-05 05:28N 25°47' W 080°11'0 0.0
2018-Apr-05 04:58N 25°47' W 080°11'0 0.0
2018-Apr-05 04:28N 25°47' W 080°11'0 0.0
2018-Apr-05 03:58N 25°47' W 080°11'0 0.0
2018-Apr-05 03:28N 25°47' W 080°11'0 0.0
2018-Apr-05 02:58N 25°47' W 080°11'0 0.0
2018-Apr-05 02:25N 25°47' W 080°11'0 0.0
2018-Apr-05 01:58N 25°47' W 080°11'0 0.0
2018-Apr-05 01:28N 25°47' W 080°11'0 0.0
2018-Apr-05 00:58N 25°47' W 080°11'0 0.0
2018-Apr-05 00:28N 25°47' W 080°11'0 0.0
2018-Apr-04 23:58N 25°47' W 080°11'0 0.0
2018-Apr-04 23:28N 25°47' W 080°11'0 0.0
2018-Apr-04 22:58N 25°47' W 080°11'0 0.0
2018-Apr-04 22:28N 25°47' W 080°11'0 0.0
2018-Apr-04 21:58N 25°47' W 080°11'0 0.0
2018-Apr-04 21:28N 25°47' W 080°11'0 0.0
2018-Apr-04 20:58N 25°47' W 080°11'0 0.0
2018-Apr-04 20:25N 25°47' W 080°11'0 0.0
2018-Apr-04 19:58N 25°47' W 080°11'0 0.0
2018-Apr-04 19:28N 25°47' W 080°11'0 0.0
2018-Apr-04 18:55N 25°47' W 080°11'0 0.0
2018-Apr-04 18:28N 25°47' W 080°11'0 0.0
2018-Apr-04 17:52N 25°47' W 080°11'0 0.0
2018-Apr-04 17:22N 25°47' W 080°11'0 0.0
2018-Apr-04 16:55N 25°47' W 080°11'0 0.0
2018-Apr-04 16:28N 25°47' W 080°11'0 0.0
2018-Apr-04 15:58N 25°47' W 080°11'0 0.0
2018-Apr-04 15:28N 25°47' W 080°11'0 0.0
2018-Apr-04 14:55N 25°47' W 080°11'0 0.0
2018-Apr-04 14:28N 25°47' W 080°11'0 0.0
2018-Apr-04 13:58N 25°47' W 080°11'0 0.0
2018-Apr-04 13:25N 25°47' W 080°11'0 0.0
2018-Apr-04 12:58N 25°47' W 080°11'0 0.0
2018-Apr-04 12:28N 25°47' W 080°11'0 0.0
2018-Apr-04 11:58N 25°47' W 080°11'0 0.0
2018-Apr-04 11:28N 25°47' W 080°11'0 0.0
2018-Apr-04 10:58N 25°47' W 080°11'0 0.0
2018-Apr-04 10:28N 25°47' W 080°11'0 0.0
2018-Apr-04 09:58N 25°47' W 080°11'0 0.0
2018-Apr-04 09:28N 25°47' W 080°11'0 0.0
2018-Apr-04 09:01N 25°47' W 080°11'0 0.0
2018-Apr-04 08:28N 25°47' W 080°11'0 0.0
2018-Apr-04 08:01N 25°47' W 080°11'0 0.0
2018-Apr-04 07:28N 25°47' W 080°11'0 0.0
2018-Apr-04 06:58N 25°47' W 080°11'0 0.0
2018-Apr-04 06:28N 25°47' W 080°11'0 0.0
2018-Apr-04 05:58N 25°47' W 080°11'0 0.0
2018-Apr-04 05:25N 25°47' W 080°11'0 0.0
2018-Apr-04 04:58N 25°47' W 080°11'0 0.0
2018-Apr-04 04:28N 25°47' W 080°11'0 0.0
2018-Apr-04 03:55N 25°47' W 080°11'0 0.0
2018-Apr-04 03:28N 25°47' W 080°11'0 0.0
2018-Apr-04 02:58N 25°47' W 080°11'0 0.0
2018-Apr-04 02:19N 25°47' W 080°11'0 0.0
2018-Apr-04 01:58N 25°47' W 080°11'0 0.0
2018-Apr-04 01:22N 25°47' W 080°11'0 0.0
2018-Apr-04 00:57N 25°47' W 080°11'0 0.0
2018-Apr-04 00:28N 25°47' W 080°11'0 0.0
2018-Apr-03 23:58N 25°47' W 080°11'0 0.0
2018-Apr-03 23:25N 25°47' W 080°11'0 0.0
2018-Apr-03 23:00N 25°47' W 080°11'0 0.0
2018-Apr-03 22:28N 25°47' W 080°11'0 0.0
2018-Apr-03 21:58N 25°47' W 080°11'0 0.0
2018-Apr-03 21:28N 25°47' W 080°11'0 0.0
2018-Apr-03 20:54N 25°47' W 080°11'0 0.0
2018-Apr-03 20:28N 25°47' W 080°11'0 0.0
2018-Apr-03 20:00N 25°47' W 080°11'0 0.0
2018-Apr-03 19:31N 25°47' W 080°11'0 0.0
2018-Apr-03 18:57N 25°47' W 080°11'0 0.0
2018-Apr-03 18:30N 25°47' W 080°11'0 0.0
2018-Apr-03 17:58N 25°47' W 080°11'0 0.0
2018-Apr-03 17:27N 25°47' W 080°11'0 0.0
2018-Apr-03 16:58N 25°47' W 080°11'0 0.0
2018-Apr-03 16:31N 25°47' W 080°11'0 0.0
2018-Apr-03 16:01N 25°47' W 080°11'0 0.0
2018-Apr-03 15:31N 25°47' W 080°11'0 0.0
2018-Apr-03 15:01N 25°47' W 080°11'0 0.0
2018-Apr-03 14:30N 25°47' W 080°11'0 0.0
2018-Apr-03 14:00N 25°47' W 080°11'0 0.0
2018-Apr-03 13:30N 25°47' W 080°11'0 0.0
2018-Apr-03 13:00N 25°47' W 080°11'0 0.0
2018-Apr-03 12:30N 25°47' W 080°11'0 0.0
2018-Apr-03 12:00N 25°47' W 080°11'0 0.0
2018-Apr-03 11:30N 25°47' W 080°11'0 0.0
2018-Apr-03 11:01N 25°47' W 080°11'0 0.0
2018-Apr-03 10:28N 25°47' W 080°11'0 0.0
2018-Apr-03 09:54N 25°47' W 080°11'0 0.0
2018-Apr-03 09:30N 25°47' W 080°11'0 0.0
2018-Apr-03 08:55N 25°47' W 080°11'0 0.0
2018-Apr-03 08:30N 25°47' W 080°11'0 0.0
2018-Apr-03 08:00N 25°47' W 080°11'0 0.0
2018-Apr-03 07:31N 25°47' W 080°11'0 0.0
2018-Apr-03 07:00N 25°47' W 080°11'0 0.0
2018-Apr-03 06:27N 25°47' W 080°11'0 0.0
2018-Apr-03 06:00N 25°47' W 080°11'0 0.0
2018-Apr-03 05:30N 25°47' W 080°11'0 0.0
2018-Apr-03 05:01N 25°47' W 080°11'0 0.0
2018-Apr-03 04:30N 25°47' W 080°11'0 0.0
2018-Apr-03 03:57N 25°47' W 080°11'0 0.0
2018-Apr-03 03:25N 25°47' W 080°11'0 0.0
2018-Apr-03 03:00N 25°47' W 080°11'0 0.0
2018-Apr-03 02:30N 25°47' W 080°11'0 0.0
2018-Apr-03 02:00N 25°47' W 080°11'0 0.0
2018-Apr-03 01:30N 25°47' W 080°11'0 0.0
2018-Apr-03 01:01N 25°47' W 080°11'0 0.0
2018-Apr-03 00:27N 25°47' W 080°11'0 0.0
2018-Apr-03 00:00N 25°47' W 080°11'0 0.0
2018-Apr-02 23:31N 25°47' W 080°11'0 0.0
2018-Apr-02 23:00N 25°47' W 080°11'0 0.0
2018-Apr-02 22:30N 25°47' W 080°11'0 0.0
2018-Apr-02 22:00N 25°47' W 080°11'0 0.0
2018-Apr-02 21:27N 25°47' W 080°11'0 0.0
2018-Apr-02 21:00N 25°47' W 080°11'0 0.0
2018-Apr-02 20:30N 25°47' W 080°11'0 0.0
2018-Apr-02 20:00N 25°47' W 080°11'0 0.0
2018-Apr-02 19:30N 25°47' W 080°11'0 0.0
2018-Apr-02 18:57N 25°47' W 080°11'0 0.0
2018-Apr-02 18:30N 25°47' W 080°11'0 0.0
2018-Apr-02 18:00N 25°47' W 080°11'0 0.0
2018-Apr-02 17:30N 25°47' W 080°11'0 0.0
2018-Apr-02 17:00N 25°47' W 080°11'0 0.0
2018-Apr-02 16:30N 25°47' W 080°11'0 0.0
2018-Apr-02 16:00N 25°47' W 080°11'0 0.0
2018-Apr-02 15:24N 25°47' W 080°11'0 0.0
2018-Apr-02 14:57N 25°47' W 080°11'0 0.0
2018-Apr-02 14:30N 25°47' W 080°11'0 0.0
2018-Apr-02 13:57N 25°47' W 080°11'0 0.0
2018-Apr-02 13:30N 25°47' W 080°11'0 0.0
2018-Apr-02 13:00N 25°47' W 080°11'0 0.0
2018-Apr-02 12:30N 25°47' W 080°11'0 0.0
2018-Apr-02 12:00N 25°47' W 080°11'0 0.0
2018-Apr-02 11:30N 25°47' W 080°11'0 0.0
2018-Apr-02 11:00N 25°47' W 080°11'0 0.0
2018-Apr-02 10:30N 25°47' W 080°11'0 0.0
2018-Apr-02 10:00N 25°47' W 080°11'0 0.0
2018-Apr-02 09:30N 25°47' W 080°11'0 0.0
2018-Apr-02 09:00N 25°47' W 080°11'0 0.0
2018-Apr-02 08:30N 25°47' W 080°11'0 0.0
2018-Apr-02 08:00N 25°47' W 080°11'0 0.0
2018-Apr-02 07:30N 25°47' W 080°11'0 0.0
2018-Apr-02 07:00N 25°47' W 080°11'0 0.0
2018-Apr-02 06:30N 25°47' W 080°11'0 0.0
2018-Apr-02 06:00N 25°47' W 080°11'0 0.0
2018-Apr-02 05:30N 25°47' W 080°11'0 0.0
2018-Apr-02 05:00N 25°47' W 080°11'0 0.0
2018-Apr-02 04:24N 25°47' W 080°11'0 0.0
2018-Apr-02 03:54N 25°47' W 080°11'0 0.0
2018-Apr-02 03:24N 25°47' W 080°11'0 0.0
2018-Apr-02 03:00N 25°47' W 080°11'0 0.0
2018-Apr-02 02:30N 25°47' W 080°11'0 0.0
2018-Apr-02 02:00N 25°47' W 080°11'0 0.0
2018-Apr-02 01:30N 25°47' W 080°11'0 0.0
2018-Apr-02 01:00N 25°47' W 080°11'0 0.0
2018-Apr-02 00:30N 25°47' W 080°11'0 0.0
2018-Apr-02 00:00N 25°47' W 080°11'0 0.0
2018-Apr-01 23:30N 25°47' W 080°11'0 0.0
2018-Apr-01 23:00N 25°47' W 080°11'0 0.0
2018-Apr-01 22:30N 25°47' W 080°11'0 0.0
2018-Apr-01 22:00N 25°47' W 080°11'0 0.0
2018-Apr-01 21:30N 25°47' W 080°11'0 0.0
2018-Apr-01 21:00N 25°47' W 080°11'0 0.0
2018-Apr-01 20:30N 25°47' W 080°11'0 0.0
2018-Apr-01 20:00N 25°47' W 080°11'0 0.0
2018-Apr-01 19:30N 25°47' W 080°11'0 0.0
2018-Apr-01 19:00N 25°47' W 080°11'0 0.0
2018-Apr-01 18:30N 25°47' W 080°11'0 0.0
2018-Apr-01 18:00N 25°47' W 080°11'0 0.0
2018-Apr-01 17:30N 25°47' W 080°11'0 0.0
2018-Apr-01 17:00N 25°47' W 080°11'0 0.0
2018-Apr-01 16:30N 25°47' W 080°11'0 0.0
2018-Apr-01 16:00N 25°47' W 080°11'0 0.0
2018-Apr-01 15:30N 25°47' W 080°11'0 0.0
2018-Apr-01 15:00N 25°47' W 080°11'0 0.0
2018-Apr-01 14:30N 25°47' W 080°11'0 0.0
2018-Apr-01 14:00N 25°47' W 080°11'0 0.0
2018-Apr-01 13:27N 25°47' W 080°11'0 0.0
2018-Apr-01 12:57N 25°47' W 080°11'0 0.0
2018-Apr-01 12:30N 25°47' W 080°11'0 0.0
2018-Apr-01 12:00N 25°47' W 080°11'0 0.0
2018-Apr-01 11:27N 25°47' W 080°11'0 0.0
2018-Apr-01 11:00N 25°47' W 080°11'0 0.0
2018-Apr-01 10:30N 25°47' W 080°11'0 0.0
2018-Apr-01 10:00N 25°47' W 080°11'0 0.0
2018-Apr-01 09:30N 25°47' W 080°11'0 0.0
2018-Apr-01 09:00N 25°47' W 080°11'0 0.0
2018-Apr-01 08:30N 25°47' W 080°11'0 0.0
2018-Apr-01 08:00N 25°47' W 080°11'0 0.0
2018-Apr-01 07:30N 25°47' W 080°11'0 0.0
2018-Apr-01 07:00N 25°47' W 080°11'0 0.0
2018-Apr-01 06:30N 25°47' W 080°11'0 0.0
2018-Apr-01 06:00N 25°47' W 080°11'0 0.0
2018-Apr-01 05:30N 25°47' W 080°11'0 0.0
2018-Apr-01 05:00N 25°47' W 080°11'0 0.0
2018-Apr-01 04:30N 25°47' W 080°11'0 0.0
2018-Apr-01 04:00N 25°47' W 080°11'0 0.0
2018-Apr-01 03:27N 25°47' W 080°11'0 0.0
2018-Apr-01 03:00N 25°47' W 080°11'0 0.0
2018-Apr-01 02:30N 25°47' W 080°11'0 0.0
2018-Apr-01 02:00N 25°47' W 080°11'0 0.0
2018-Apr-01 01:30N 25°47' W 080°11'0 0.0
2018-Apr-01 01:00N 25°47' W 080°11'0 0.0
2018-Apr-01 00:30N 25°47' W 080°11'0 0.0
2018-Apr-01 00:00N 25°47' W 080°11'0 0.0
2018-Mar-31 23:24N 25°47' W 080°11'0 0.0
2018-Mar-31 23:00N 25°47' W 080°11'0 0.0
2018-Mar-31 22:30N 25°47' W 080°11'0 0.0
2018-Mar-31 21:54N 25°47' W 080°11'0 0.0
2018-Mar-31 21:30N 25°47' W 080°11'0 0.0
2018-Mar-31 20:57N 25°47' W 080°11'0 0.0
2018-Mar-31 20:30N 25°47' W 080°11'0 0.0
2018-Mar-31 20:00N 25°47' W 080°11'0 0.0
2018-Mar-31 19:30N 25°47' W 080°11'0 0.0
2018-Mar-31 18:57N 25°47' W 080°11'0 0.0
2018-Mar-31 18:27N 25°47' W 080°11'0 0.0
2018-Mar-31 18:00N 25°47' W 080°11'0 0.0
2018-Mar-31 17:30N 25°47' W 080°11'0 0.0
2018-Mar-31 17:00N 25°47' W 080°11'0 0.0
2018-Mar-31 16:30N 25°47' W 080°11'0 0.0
2018-Mar-31 16:00N 25°47' W 080°11'0 0.0
2018-Mar-31 15:30N 25°47' W 080°11'0 0.0
2018-Mar-31 15:00N 25°47' W 080°11'0 0.0
2018-Mar-31 14:30N 25°47' W 080°11'0 0.0
2018-Mar-31 14:00N 25°47' W 080°11'0 0.0
2018-Mar-31 13:30N 25°47' W 080°11'0 0.0
2018-Mar-31 13:00N 25°47' W 080°11'0 0.0
2018-Mar-31 12:30N 25°47' W 080°11'0 0.0
2018-Mar-31 12:00N 25°47' W 080°11'0 0.0
2018-Mar-31 11:30N 25°47' W 080°11'0 0.0
2018-Mar-31 11:00N 25°47' W 080°11'0 0.0
2018-Mar-31 10:30N 25°47' W 080°11'0 0.0
2018-Mar-31 10:00N 25°47' W 080°11'0 0.0
2018-Mar-31 09:30N 25°47' W 080°11'0 0.0
2018-Mar-31 09:00N 25°47' W 080°11'0 0.0
2018-Mar-31 08:30N 25°47' W 080°11'0 0.0
2018-Mar-31 08:00N 25°47' W 080°11'0 0.0
2018-Mar-31 07:27N 25°47' W 080°11'0 0.0
2018-Mar-31 07:00N 25°47' W 080°11'0 0.0
2018-Mar-31 06:24N 25°47' W 080°11'0 0.0
2018-Mar-31 06:00N 25°47' W 080°11'0 0.0
2018-Mar-31 05:30N 25°47' W 080°11'0 0.0
2018-Mar-31 05:00N 25°47' W 080°11'0 0.0
2018-Mar-31 04:30N 25°47' W 080°11'0 0.0
2018-Mar-31 04:00N 25°47' W 080°11'0 0.0
2018-Mar-31 03:30N 25°47' W 080°11'0 0.0
2018-Mar-31 02:57N 25°47' W 080°11'0 0.0
2018-Mar-31 02:30N 25°47' W 080°11'0 0.0
2018-Mar-31 02:00N 25°47' W 080°11'0 0.0
2018-Mar-31 01:30N 25°47' W 080°11'0 0.0
2018-Mar-31 01:00N 25°47' W 080°11'0 0.0
2018-Mar-31 00:30N 25°47' W 080°11'0 0.0
2018-Mar-30 23:57N 25°47' W 080°11'0 0.0
2018-Mar-30 23:30N 25°47' W 080°11'0 0.0
2018-Mar-30 23:00N 25°47' W 080°11'0 0.0
2018-Mar-30 22:30N 25°47' W 080°11'0 0.0
2018-Mar-30 22:00N 25°47' W 080°11'0 0.0
2018-Mar-30 21:30N 25°47' W 080°11'0 0.0
2018-Mar-30 21:00N 25°47' W 080°11'0 0.0
2018-Mar-30 20:30N 25°47' W 080°11'0 0.0
2018-Mar-30 20:00N 25°47' W 080°11'0 0.0
2018-Mar-30 19:27N 25°47' W 080°11'0 0.0
2018-Mar-30 19:00N 25°47' W 080°11'0 0.0
2018-Mar-30 18:30N 25°47' W 080°11'0 0.0
2018-Mar-30 17:57N 25°47' W 080°11'0 0.0
2018-Mar-30 17:30N 25°47' W 080°11'0 0.0
2018-Mar-30 16:51N 25°47' W 080°11'0 0.0
2018-Mar-30 16:27N 25°47' W 080°11'0 0.0
2018-Mar-30 16:00N 25°47' W 080°11'0 0.0
2018-Mar-30 15:30N 25°47' W 080°11'0 0.0
2018-Mar-30 15:00N 25°47' W 080°11'0 0.0
2018-Mar-30 14:30N 25°47' W 080°11'0 0.0
2018-Mar-30 13:54N 25°47' W 080°11'0 0.0
2018-Mar-30 13:27N 25°47' W 080°11'0 0.0
2018-Mar-30 13:00N 25°47' W 080°11'0 0.0
2018-Mar-30 12:27N 25°47' W 080°11'0 0.0
2018-Mar-30 11:57N 25°47' W 080°11'0 0.0
2018-Mar-30 11:30N 25°47' W 080°11'0 0.0
2018-Mar-30 11:00N 25°47' W 080°11'0 0.0
2018-Mar-30 10:30N 25°47' W 080°11'0 0.0
2018-Mar-30 10:00N 25°47' W 080°11'0 0.0
2018-Mar-30 09:30N 25°47' W 080°11'0 0.0
2018-Mar-30 09:00N 25°47' W 080°11'0 0.0
2018-Mar-30 08:30N 25°47' W 080°11'0 0.0
2018-Mar-30 08:00N 25°47' W 080°11'0 0.0
2018-Mar-30 07:30N 25°47' W 080°11'0 0.0
2018-Mar-30 07:00N 25°47' W 080°11'0 0.0
2018-Mar-30 06:30N 25°47' W 080°11'0 0.0
2018-Mar-30 06:00N 25°47' W 080°11'0 0.0
2018-Mar-30 05:30N 25°47' W 080°11'0 0.0
2018-Mar-30 05:00N 25°47' W 080°11'0 0.0
2018-Mar-30 04:30N 25°47' W 080°11'0 0.0
2018-Mar-30 04:00N 25°47' W 080°11'0 0.0
2018-Mar-30 03:30N 25°47' W 080°11'0 0.0
2018-Mar-30 02:57N 25°47' W 080°11'0 0.0
2018-Mar-30 02:30N 25°47' W 080°11'0 0.0
2018-Mar-30 02:00N 25°47' W 080°11'0 0.0
2018-Mar-30 01:24N 25°47' W 080°11'0 0.0
2018-Mar-30 01:00N 25°47' W 080°11'0 0.0
2018-Mar-30 00:30N 25°47' W 080°11'0 0.0
2018-Mar-29 23:57N 25°47' W 080°11'0 0.0
2018-Mar-29 23:30N 25°47' W 080°11'0 0.0
2018-Mar-29 23:00N 25°47' W 080°11'0 0.0
2018-Mar-29 22:30N 25°47' W 080°11'0 0.0
2018-Mar-29 22:00N 25°47' W 080°11'0 0.0
2018-Mar-29 21:30N 25°47' W 080°11'0 0.0
2018-Mar-29 21:00N 25°47' W 080°11'0 0.0
2018-Mar-29 20:27N 25°47' W 080°11'0 0.0
2018-Mar-29 20:00N 25°47' W 080°11'0 0.0
2018-Mar-29 19:30N 25°47' W 080°11'0 0.0
2018-Mar-29 19:00N 25°47' W 080°11'0 0.0
2018-Mar-29 18:30N 25°47' W 080°11'0 0.0
2018-Mar-29 18:00N 25°47' W 080°11'0 0.0
2018-Mar-29 17:30N 25°47' W 080°11'0 0.0
2018-Mar-29 17:00N 25°47' W 080°11'0 0.0
2018-Mar-29 16:30N 25°47' W 080°11'0 0.0
2018-Mar-29 16:00N 25°47' W 080°11'0 0.0
2018-Mar-29 15:30N 25°47' W 080°11'0 0.0
2018-Mar-29 15:00N 25°47' W 080°11'0 0.0
2018-Mar-29 14:30N 25°47' W 080°11'0 0.0
2018-Mar-29 14:00N 25°47' W 080°11'0 0.0
2018-Mar-29 13:30N 25°47' W 080°11'0 0.0
2018-Mar-29 13:00N 25°47' W 080°11'0 0.0
2018-Mar-29 12:30N 25°47' W 080°11'0 0.0
2018-Mar-29 11:54N 25°47' W 080°11'0 0.0
2018-Mar-29 11:30N 25°47' W 080°11'0 0.0
2018-Mar-29 11:00N 25°47' W 080°11'0 0.0
2018-Mar-29 10:30N 25°47' W 080°11'0 0.0
2018-Mar-29 09:57N 25°47' W 080°11'0 0.0
2018-Mar-29 09:30N 25°47' W 080°11'0 0.0
2018-Mar-29 08:54N 25°47' W 080°11'0 0.0
2018-Mar-29 08:30N 25°47' W 080°11'0 0.0
2018-Mar-29 08:00N 25°47' W 080°11'0 0.0
2018-Mar-29 07:30N 25°47' W 080°11'0 0.0
2018-Mar-29 07:00N 25°47' W 080°11'0 0.0
2018-Mar-29 06:30N 25°47' W 080°11'0 0.0
2018-Mar-29 05:57N 25°47' W 080°11'0 0.0
2018-Mar-29 05:30N 25°47' W 080°11'0 0.0
2018-Mar-29 05:00N 25°47' W 080°11'0 0.0
2018-Mar-29 04:30N 25°47' W 080°11'0 0.0
2018-Mar-29 04:00N 25°47' W 080°11'0 0.0
2018-Mar-29 03:30N 25°47' W 080°11'0 0.0
2018-Mar-29 03:00N 25°47' W 080°11'0 0.0
2018-Mar-29 02:30N 25°47' W 080°11'0 0.0
2018-Mar-29 02:00N 25°47' W 080°11'0 0.0
2018-Mar-29 01:30N 25°47' W 080°11'0 0.0
2018-Mar-29 00:51N 25°47' W 080°11'0 0.0
2018-Mar-29 00:30N 25°47' W 080°11'0 0.0
2018-Mar-29 00:00N 25°47' W 080°11'  

Dump ship's entire track history